Time;durP1;ratioP1;P1;durP2;ratioP2;P2;SDS_P1;SDS_P2;PMS_P1;PMS_P2;Temp;Humidity;BMP_temperature;BMP_pressure;BME280_temperature;BME280_humidity;BME280_pressure;Samples;Min_cycle;Max_cycle;Signal;HPM_P1;HPM_P2
2023/05/02 00:00:35;;;;;;;25.17;11.82;;;10.90;99.90;;;;;;5018698;28;20041;-84
2023/05/02 00:03:02;;;;;;;23.13;11.75;;;10.90;99.90;;;;;;5017178;28;20064;-84
2023/05/02 00:05:41;;;;;;;23.77;11.90;;;11.60;99.90;;;;;;5016286;28;20042;-84
2023/05/02 00:08:06;;;;;;;22.77;11.90;;;10.90;99.90;;;;;;5016820;28;20057;-84
2023/05/02 00:10:32;;;;;;;26.75;12.93;;;11.90;99.90;;;;;;5017399;28;20045;-85
2023/05/02 00:13:01;;;;;;;28.17;13.10;;;12.20;99.90;;;;;;5048439;28;20042;-85
2023/05/02 00:15:27;;;;;;;25.77;13.18;;;10.90;99.90;;;;;;5039387;28;20052;-85
2023/05/02 00:17:52;;;;;;;26.98;13.65;;;11.40;99.90;;;;;;5035097;28;20055;-85
2023/05/02 00:20:18;;;;;;;26.90;13.52;;;11.50;99.90;;;;;;5020742;28;20573;-85
2023/05/02 00:22:46;;;;;;;26.13;12.75;;;11.60;99.90;;;;;;5035407;28;20041;-85
2023/05/02 00:25:16;;;;;;;23.70;12.50;;;11.50;99.90;;;;;;5016631;28;20041;-85
2023/05/02 00:27:45;;;;;;;24.65;12.25;;;11.50;99.90;;;;;;5034107;28;20104;-84
2023/05/02 00:30:11;;;;;;;26.02;13.68;;;10.90;99.90;;;;;;5033718;28;20045;-84
2023/05/02 00:32:37;;;;;;;26.95;13.02;;;10.90;99.90;;;;;;5033250;28;20402;-84
2023/05/02 00:35:03;;;;;;;27.98;12.95;;;11.90;99.90;;;;;;5016057;28;20481;-84
2023/05/02 00:37:29;;;;;;;22.70;11.70;;;10.90;99.90;;;;;;5016020;28;20048;-85
2023/05/02 00:39:55;;;;;;;27.20;10.40;;;11.90;99.90;;;;;;5033229;28;20041;-85
2023/05/02 00:42:20;;;;;;;20.50;10.52;;;10.90;99.90;;;;;;5016473;28;20037;-85
2023/05/02 00:44:46;;;;;;;21.20;10.10;;;10.80;99.90;;;;;;5032626;28;20045;-85
2023/05/02 00:47:13;;;;;;;20.38;9.98;;;10.70;99.90;;;;;;5015534;28;20140;-84
2023/05/02 00:49:39;;;;;;;17.40;8.82;;;10.70;99.90;;;;;;5015835;28;20045;-85
2023/05/02 00:52:06;;;;;;;23.60;10.57;;;10.50;99.90;;;;;;5015468;28;20046;-84
2023/05/02 00:54:32;;;;;;;21.73;9.90;;;11.00;99.90;;;;;;5015391;28;20045;-84
2023/05/02 00:56:57;;;;;;;18.38;9.15;;;10.40;99.90;;;;;;5015620;28;20053;-84
2023/05/02 00:59:24;;;;;;;15.95;6.60;;;11.40;99.90;;;;;;5033858;28;20120;-85
2023/05/02 01:01:55;;;;;;;19.33;8.18;;;11.30;99.90;;;;;;5015346;28;20043;-85
2023/05/02 01:04:36;;;;;;;18.23;6.85;;;10.20;99.90;;;;;;5015839;28;20049;-84
2023/05/02 01:07:20;;;;;;;19.75;7.65;;;10.10;99.90;;;;;;5015558;28;20048;-85
2023/05/02 01:10:11;;;;;;;14.32;6.78;;;10.60;99.90;;;;;;5032865;28;20050;-84
2023/05/02 01:12:44;;;;;;;15.50;6.55;;;9.90;99.90;;;;;;5032357;28;20052;-85
2023/05/02 01:15:15;;;;;;;14.15;5.95;;;10.50;99.90;;;;;;5032207;28;20052;-85
2023/05/02 01:17:44;;;;;;;13.20;5.38;;;9.90;99.90;;;;;;5015811;28;20046;-85
2023/05/02 01:20:19;;;;;;;12.77;4.93;;;10.30;99.90;;;;;;5015260;28;20490;-85
2023/05/02 01:22:46;;;;;;;11.18;4.50;;;10.80;99.90;;;;;;5024744;28;20076;-84
2023/05/02 01:25:36;;;;;;;10.00;3.90;;;9.90;99.90;;;;;;5034350;28;20128;-85
2023/05/02 01:28:30;;;;;;;11.80;4.20;;;9.70;99.90;;;;;;5032567;28;20065;-85
2023/05/02 01:30:56;;;;;;;10.13;3.70;;;10.20;99.90;;;;;;5014296;28;20060;-85
2023/05/02 01:33:24;;;;;;;11.00;3.70;;;9.70;99.90;;;;;;5033344;28;20358;-85
2023/05/02 01:35:51;;;;;;;9.18;3.28;;;9.60;99.90;;;;;;5014624;28;20037;-85
2023/05/02 01:38:18;;;;;;;8.20;3.30;;;9.60;99.90;;;;;;5031427;28;20091;-85
2023/05/02 01:41:06;;;;;;;8.93;3.60;;;9.90;99.90;;;;;;5023976;28;20069;-85
2023/05/02 01:43:33;;;;;;;11.38;4.07;;;9.50;99.90;;;;;;5019886;28;20052;-85
2023/05/02 01:46:01;;;;;;;11.10;3.70;;;10.20;99.90;;;;;;5015429;28;20076;-85
2023/05/02 01:48:27;;;;;;;11.15;3.90;;;9.40;99.90;;;;;;5023962;28;20050;-85
2023/05/02 01:51:10;;;;;;;12.45;4.22;;;9.70;99.90;;;;;;5035987;28;20049;-85
2023/05/02 01:53:38;;;;;;;9.80;3.83;;;10.80;99.90;;;;;;5033213;28;20073;-85
2023/05/02 01:56:05;;;;;;;10.75;3.97;;;9.40;99.90;;;;;;5016438;28;20124;-85
2023/05/02 01:58:32;;;;;;;11.25;4.00;;;9.30;99.90;;;;;;5018326;28;20049;-85
2023/05/02 02:01:00;;;;;;;9.68;3.80;;;9.70;99.90;;;;;;5000249;23;20055;-85
2023/05/02 02:03:28;;;;;;;8.43;3.47;;;10.30;99.90;;;;;;4997579;28;20124;-85
2023/05/02 02:05:55;;;;;;;9.75;3.85;;;9.40;99.90;;;;;;4996613;28;20648;-85
2023/05/02 02:08:21;;;;;;;12.80;4.05;;;10.40;99.90;;;;;;4997351;28;20510;-85
2023/05/02 02:10:57;;;;;;;10.15;3.60;;;9.30;99.90;;;;;;4997175;28;20054;-85
2023/05/02 02:13:33;;;;;;;11.68;3.60;;;9.30;99.90;;;;;;4997574;28;20046;-86
2023/05/02 02:16:01;;;;;;;10.38;3.95;;;9.30;99.90;;;;;;4977919;28;20132;-85
2023/05/02 02:18:29;;;;;;;12.25;4.28;;;9.30;99.90;;;;;;4996875;28;20046;-85
2023/05/02 02:21:15;;;;;;;11.20;4.20;;;9.50;99.90;;;;;;4979547;28;20499;-85
2023/05/02 02:23:43;;;;;;;9.82;3.80;;;9.30;99.90;;;;;;4980078;28;20050;-85
2023/05/02 02:26:11;;;;;;;9.52;3.80;;;9.40;99.90;;;;;;4978739;28;20162;-85
2023/05/02 02:28:37;;;;;;;11.60;4.13;;;9.30;99.90;;;;;;4997845;28;20147;-86
2023/05/02 02:31:03;;;;;;;11.82;4.35;;;9.20;99.90;;;;;;4997097;28;20046;-85
2023/05/02 02:33:44;;;;;;;13.23;4.65;;;9.20;99.90;;;;;;4996304;28;20392;-86
2023/05/02 02:36:14;;;;;;;12.15;4.55;;;9.20;99.90;;;;;;4979384;28;20046;-85
2023/05/02 02:39:02;;;;;;;12.15;4.50;;;9.20;99.90;;;;;;4979552;28;20043;-85
2023/05/02 02:41:35;;;;;;;11.95;4.70;;;9.20;99.90;;;;;;4997019;28;20050;-85
2023/05/02 02:44:20;;;;;;;16.52;4.65;;;9.20;99.90;;;;;;4996518;28;20046;-85
2023/05/02 02:46:52;;;;;;;13.45;4.75;;;9.20;99.90;;;;;;4978874;28;20050;-85
2023/05/02 02:49:30;;;;;;;13.02;4.82;;;9.20;99.90;;;;;;4996524;28;20042;-85
2023/05/02 02:52:14;;;;;;;13.98;4.70;;;9.20;99.90;;;;;;4988967;28;20066;-84
2023/05/02 02:54:44;;;;;;;;;;;9.20;99.90;;;;;;5006573;28;20038;-85
2023/05/02 02:57:25;;;;;;;13.77;4.50;;;10.00;99.90;;;;;;4982808;28;20305;-84
2023/05/02 03:00:09;;;;;;;12.77;4.68;;;9.20;99.90;;;;;;4981210;28;20034;-85
2023/05/02 03:02:36;;;;;;;12.43;5.30;;;9.20;99.90;;;;;;4979807;28;20495;-85
2023/05/02 03:05:03;;;;;;;12.93;5.07;;;9.50;99.90;;;;;;4995890;28;20100;-85
2023/05/02 03:07:29;;;;;;;14.50;4.70;;;9.20;99.90;;;;;;4977395;28;20054;-85
2023/05/02 03:09:54;;;;;;;17.02;5.55;;;9.10;99.90;;;;;;4983691;28;20054;-85
2023/05/02 03:12:20;;;;;;;14.75;5.30;;;8.80;99.90;;;;;;4980479;28;20053;-85
2023/05/02 03:14:46;;;;;;;16.88;3.92;;;8.60;99.90;;;;;;4996331;28;20048;-85
2023/05/02 03:17:12;;;;;;;17.13;5.20;;;8.40;99.90;;;;;;5001280;28;20042;-85
2023/05/02 03:19:37;;;;;;;15.25;5.32;;;9.20;99.90;;;;;;4979733;28;20482;-85
2023/05/02 03:22:21;;;;;;;;;;;8.30;99.90;;;;;;4980768;28;20042;-85
2023/05/02 03:25:09;;;;;;;14.98;4.85;;;8.20;99.90;;;;;;4996061;28;19926;-85
2023/05/02 03:27:35;;;;;;;18.85;5.82;;;7.90;99.90;;;;;;4996146;28;20056;-85
2023/05/02 03:30:04;;;;;;;17.05;4.93;;;8.10;99.90;;;;;;4977430;28;20557;-87
2023/05/02 03:32:30;;;;;;;20.25;5.35;;;8.10;99.90;;;;;;4996071;28;20113;-85
2023/05/02 03:34:59;;;;;;;15.70;5.97;;;8.00;99.90;;;;;;4978000;28;20054;-85
2023/05/02 03:37:34;;;;;;;23.45;6.53;;;7.90;99.90;;;;;;4977506;28;20050;-85
2023/05/02 03:40:33;;;;;;;18.60;6.55;;;8.30;99.90;;;;;;4977647;28;20502;-85
2023/05/02 03:42:59;;;;;;;19.45;5.60;;;8.50;99.90;;;;;;4994558;28;20035;-86
2023/05/02 03:45:27;;;;;;;18.08;6.00;;;7.60;99.90;;;;;;4978795;28;20484;-85
2023/05/02 03:48:02;;;;;;;19.02;6.32;;;7.60;99.90;;;;;;4961258;28;20089;-84
2023/05/02 03:50:28;;;;;;;19.50;5.75;;;7.50;99.90;;;;;;4991301;23;20062;-84
2023/05/02 03:52:57;;;;;;;18.70;5.45;;;8.40;99.90;;;;;;4995924;28;20042;-85
2023/05/02 03:55:39;;;;;;;23.30;6.43;;;7.30;99.90;;;;;;4995534;28;20054;-85
2023/05/02 03:58:27;;;;;;;19.38;5.88;;;8.30;99.90;;;;;;4977305;28;20089;-85
2023/05/02 04:00:53;;;;;;;21.83;5.78;;;7.20;99.90;;;;;;4978776;28;20054;-85
2023/05/02 04:03:19;;;;;;;19.80;5.35;;;7.00;99.90;;;;;;4987648;28;20520;-85
2023/05/02 04:05:45;;;;;;;20.27;5.00;;;7.10;99.90;;;;;;4993725;28;20590;-85
2023/05/02 04:08:11;;;;;;;22.77;5.68;;;8.00;99.90;;;;;;4995086;28;20121;-84
2023/05/02 04:10:37;;;;;;;20.88;6.05;;;7.00;99.90;;;;;;4976911;28;20047;-84
2023/05/02 04:13:03;;;;;;;16.27;5.30;;;7.00;99.90;;;;;;4995198;28;20126;-84
2023/05/02 04:15:29;;;;;;;21.65;5.43;;;7.00;99.90;;;;;;4995195;28;20097;-84
2023/05/02 04:18:13;;;;;;;23.15;5.38;;;7.00;99.90;;;;;;4993702;28;20133;-84
2023/05/02 04:20:42;;;;;;;19.48;4.88;;;8.10;99.90;;;;;;4977310;28;20042;-84
2023/05/02 04:23:07;;;;;;;17.48;4.88;;;7.00;99.90;;;;;;4985440;28;20057;-86
2023/05/02 04:25:33;;;;;;;15.40;4.75;;;8.10;99.90;;;;;;5001197;28;20483;-85
2023/05/02 04:27:58;;;;;;;17.73;4.50;;;7.00;99.90;;;;;;4977766;28;20050;-84
2023/05/02 04:30:24;;;;;;;16.83;4.65;;;7.00;99.90;;;;;;4977487;28;20073;-84
2023/05/02 04:32:51;;;;;;;15.10;4.20;;;7.00;99.90;;;;;;4977302;28;20205;-85
2023/05/02 04:35:17;;;;;;;17.27;4.78;;;7.00;99.90;;;;;;4977070;28;20046;-84
2023/05/02 04:37:42;;;;;;;16.77;4.15;;;7.00;99.90;;;;;;4998949;28;20049;-84
2023/05/02 04:40:08;;;;;;;13.48;4.57;;;6.90;99.90;;;;;;4997568;28;20050;-84
2023/05/02 04:42:34;;;;;;;15.70;4.45;;;6.80;99.90;;;;;;4977768;28;20099;-85
2023/05/02 04:45:00;;;;;;;13.98;4.03;;;6.80;99.90;;;;;;4997329;28;20493;-85
2023/05/02 04:47:29;;;;;;;21.02;4.82;;;6.80;99.90;;;;;;4996175;28;20086;-84
2023/05/02 04:49:54;;;;;;;14.82;4.00;;;6.50;99.90;;;;;;4976718;28;20082;-86
2023/05/02 04:52:38;;;;;;;16.02;4.10;;;6.80;99.90;;;;;;4994690;28;20053;-85
2023/05/02 04:55:04;;;;;;;15.68;3.97;;;6.80;99.90;;;;;;4993725;28;20471;-83
2023/05/02 04:57:45;;;;;;;15.90;3.95;;;5.90;99.90;;;;;;4994686;28;20050;-85
2023/05/02 05:00:11;;;;;;;13.77;4.13;;;6.60;99.90;;;;;;4994033;28;20038;-84
2023/05/02 05:02:38;;;;;;;15.25;3.78;;;6.70;99.90;;;;;;4977576;28;20064;-85
2023/05/02 05:05:04;;;;;;;16.33;3.60;;;6.70;99.90;;;;;;4976625;28;20051;-84
2023/05/02 05:07:34;;;;;;;15.63;3.78;;;6.70;99.90;;;;;;4993646;28;20046;-84
2023/05/02 05:10:03;;;;;;;12.68;3.30;;;6.70;99.90;;;;;;4996964;28;20052;-85
2023/05/02 05:12:28;;;;;;;13.88;3.33;;;6.70;99.90;;;;;;4980940;28;20054;-85
2023/05/02 05:14:54;;;;;;;13.02;3.50;;;6.50;99.90;;;;;;4997591;28;20098;-84
2023/05/02 05:17:20;;;;;;;15.88;3.60;;;7.10;99.90;;;;;;4994133;28;20426;-84
2023/05/02 05:20:10;;;;;;;12.10;3.28;;;6.80;99.90;;;;;;4933799;29;20052;-84
2023/05/02 05:22:40;;;;;;;12.63;3.25;;;6.70;99.90;;;;;;4933342;29;20134;-84
2023/05/02 05:25:26;;;;;;;14.15;3.38;;;7.80;99.90;;;;;;4950330;28;20065;-84
2023/05/02 05:27:52;;;;;;;15.82;3.17;;;6.80;99.90;;;;;;4993767;28;20044;-85
2023/05/02 05:30:17;;;;;;;14.85;2.97;;;6.90;99.90;;;;;;4993540;28;20402;-84
2023/05/02 05:32:43;;;;;;;11.75;2.58;;;6.90;99.90;;;;;;4994050;28;20042;-85
2023/05/02 05:35:20;;;;;;;11.48;2.70;;;6.90;99.90;;;;;;4975350;28;20046;-84
2023/05/02 05:37:46;;;;;;;14.27;3.05;;;6.90;99.90;;;;;;4976700;28;20046;-84
2023/05/02 05:40:11;;;;;;;14.05;3.40;;;6.70;99.90;;;;;;4976003;28;20061;-84
2023/05/02 05:42:37;;;;;;;10.57;2.92;;;7.00;99.90;;;;;;4993268;28;20125;-85
2023/05/02 05:45:21;;;;;;;11.82;2.60;;;7.00;99.90;;;;;;4993879;28;20129;-85
2023/05/02 05:48:02;;;;;;;;;;;7.00;99.90;;;;;;4994655;28;20089;-85
2023/05/02 05:50:31;;;;;;;11.30;2.30;;;8.10;99.90;;;;;;4971654;28;19925;-85
2023/05/02 05:52:56;;;;;;;12.25;3.35;;;6.80;99.90;;;;;;4979829;28;20049;-83
2023/05/02 05:55:41;;;;;;;9.02;2.35;;;8.00;99.90;;;;;;4988249;28;20042;-84
2023/05/02 05:58:07;;;;;;;14.55;3.05;;;7.60;99.90;;;;;;4974623;28;20047;-81
2023/05/02 06:00:37;;;;;;;8.98;2.10;;;8.10;99.90;;;;;;4973774;28;20558;-81
2023/05/02 06:03:16;;;;;;;10.77;2.33;;;7.10;99.90;;;;;;4973161;28;20046;-81
2023/05/02 06:05:41;;;;;;;12.20;2.45;;;7.40;99.90;;;;;;4989882;28;20043;-82
2023/05/02 06:08:27;;;;;;;10.38;2.22;;;8.10;99.90;;;;;;4987997;28;20043;-82
2023/05/02 06:10:53;;;;;;;9.88;2.40;;;7.00;99.90;;;;;;4974366;28;20094;-82
2023/05/02 06:13:18;;;;;;;7.50;2.08;;;8.40;99.90;;;;;;4973905;28;20046;-82
2023/05/02 06:16:02;;;;;;;8.27;2.28;;;7.10;99.90;;;;;;4976718;28;20035;-83
2023/05/02 06:18:27;;;;;;;8.75;2.33;;;7.20;99.90;;;;;;4972221;28;20087;-81
2023/05/02 06:20:53;;;;;;;10.20;2.30;;;7.60;99.90;;;;;;4973917;28;20074;-82
2023/05/02 06:23:38;;;;;;;9.73;2.70;;;7.50;99.90;;;;;;4972244;28;20054;-82
2023/05/02 06:26:04;;;;;;;12.73;2.40;;;8.80;99.90;;;;;;4971413;28;20452;-82
2023/05/02 06:28:53;;;;;;;9.43;2.53;;;7.40;99.90;;;;;;4974074;28;20086;-81
2023/05/02 06:31:19;;;;;;;9.40;2.60;;;7.20;99.90;;;;;;4971166;28;20131;-81
2023/05/02 06:34:06;;;;;;;11.00;2.60;;;7.70;99.90;;;;;;4973723;28;20097;-81
2023/05/02 06:36:32;;;;;;;11.55;3.25;;;7.50;99.90;;;;;;4973536;28;20543;-82
2023/05/02 06:38:58;;;;;;;13.43;3.05;;;9.40;99.90;;;;;;4973014;28;20131;-82
2023/05/02 06:41:23;;;;;;;11.30;2.90;;;8.10;99.90;;;;;;4974112;28;20046;-81
2023/05/02 06:43:49;;;;;;;10.60;3.40;;;8.90;99.90;;;;;;4976489;28;20376;-81
2023/05/02 06:46:15;;;;;;;11.40;2.50;;;7.90;99.90;;;;;;4976396;28;20098;-81
2023/05/02 06:48:56;;;;;;;12.75;3.20;;;9.20;99.90;;;;;;4977348;28;20054;-81
2023/05/02 06:51:21;;;;;;;13.77;3.05;;;8.70;99.90;;;;;;4989219;28;20093;-80
2023/05/02 06:53:59;;;;;;;12.00;2.85;;;7.90;99.90;;;;;;4995618;28;20088;-82
2023/05/02 06:56:25;;;;;;;13.57;2.60;;;9.30;99.90;;;;;;4975240;28;20069;-82
2023/05/02 06:59:06;;;;;;;10.43;2.90;;;8.30;99.90;;;;;;4967464;28;20054;-83
2023/05/02 07:01:32;;;;;;;15.23;3.10;;;7.70;99.90;;;;;;4991083;28;20422;-84
2023/05/02 07:04:10;;;;;;;14.35;2.65;;;9.40;99.90;;;;;;4987996;28;20054;-81
2023/05/02 07:06:35;;;;;;;14.95;3.30;;;7.40;99.90;;;;;;4992339;28;20501;-83
2023/05/02 07:09:01;;;;;;;10.63;2.70;;;7.70;99.90;;;;;;4977207;28;20046;-83
2023/05/02 07:11:39;;;;;;;12.30;3.25;;;8.90;99.90;;;;;;4978174;28;20461;-82
2023/05/02 07:14:23;;;;;;;14.90;3.45;;;7.90;99.90;;;;;;4994974;28;20042;-82
2023/05/02 07:16:48;;;;;;;10.20;2.65;;;7.60;99.90;;;;;;4978277;28;20441;-83
2023/05/02 07:19:14;;;;;;;12.98;3.60;;;7.80;99.90;;;;;;4978091;28;20566;-83
2023/05/02 07:21:55;;;;;;;16.05;4.13;;;8.00;99.90;;;;;;4977367;28;20042;-83
2023/05/02 07:24:21;;;;;;;10.45;2.90;;;8.10;99.90;;;;;;4998554;28;20043;-82
2023/05/02 07:26:46;;;;;;;9.93;2.90;;;7.80;99.90;;;;;;4992080;28;20070;-83
2023/05/02 07:29:12;;;;;;;11.25;2.65;;;7.90;99.90;;;;;;4979567;28;20039;-83
2023/05/02 07:35:12;;;;;;;10.10;2.88;;;7.90;99.90;;;;;;4977890;28;20063;-82
2023/05/02 07:37:38;;;;;;;12.57;3.10;;;8.70;99.90;;;;;;4981736;28;20093;-83
2023/05/02 07:40:22;;;;;;;10.40;3.00;;;9.50;99.90;;;;;;4977944;28;20124;-84
2023/05/02 07:42:49;;;;;;;12.05;2.90;;;8.30;99.90;;;;;;4979457;28;20054;-83
2023/05/02 07:45:15;;;;;;;11.52;3.22;;;8.60;99.90;;;;;;4997651;28;20081;-83
2023/05/02 07:47:52;;;;;;;10.95;3.13;;;9.10;99.90;;;;;;4978147;28;20088;-83
2023/05/02 07:50:59;;;;;;;12.70;3.40;;;8.40;99.90;;;;;;4977082;28;20133;-83
2023/05/02 07:53:25;;;;;;;9.00;2.83;;;8.40;99.90;;;;;;4966228;28;20149;-82
2023/05/02 07:55:51;;;;;;;12.70;3.05;;;8.70;99.90;;;;;;4987513;28;20688;-83
2023/05/02 07:58:38;;;;;;;13.05;3.15;;;9.30;99.90;;;;;;4974764;28;20042;-82
2023/05/02 08:01:07;;;;;;;12.45;3.17;;;9.70;99.90;;;;;;4970668;28;20039;-84
2023/05/02 08:03:53;;;;;;;13.23;3.58;;;8.10;99.90;;;;;;4989249;28;20499;-84
2023/05/02 08:06:18;;;;;;;10.57;2.70;;;10.00;99.90;;;;;;4994372;28;20038;-83
2023/05/02 08:08:44;;;;;;;10.15;2.88;;;8.70;99.90;;;;;;5028511;23;20053;-84
2023/05/02 08:11:24;;;;;;;9.68;2.80;;;9.40;99.90;;;;;;5047324;23;20133;-83
2023/05/02 08:13:50;;;;;;;10.77;3.22;;;9.20;99.90;;;;;;4977158;28;20054;-82
2023/05/02 08:16:16;;;;;;;16.08;3.28;;;9.90;99.90;;;;;;4994103;28;20054;-82
2023/05/02 08:18:57;;;;;;;12.07;2.97;;;8.70;99.90;;;;;;4994073;28;20042;-83
2023/05/02 08:21:22;;;;;;;9.70;2.60;;;8.50;99.90;;;;;;4976665;28;20506;-83
2023/05/02 08:23:48;;;;;;;10.60;2.97;;;9.70;99.90;;;;;;4994158;28;20042;-82
2023/05/02 08:26:32;;;;;;;10.05;2.67;;;9.20;99.90;;;;;;4994275;28;20364;-83
2023/05/02 08:28:58;;;;;;;9.88;2.72;;;9.10;99.90;;;;;;4976849;28;20172;-84
2023/05/02 08:31:49;;;;;;;10.88;3.10;;;9.90;99.90;;;;;;4979863;23;20075;-85
2023/05/02 08:34:36;;;;;;;11.18;2.55;;;8.50;99.90;;;;;;4981478;28;20074;-84
2023/05/02 08:37:01;;;;;;;9.63;2.92;;;10.40;99.90;;;;;;4980849;28;20418;-84
2023/05/02 08:39:26;;;;;;;9.20;2.47;;;10.50;99.90;;;;;;4993569;28;20034;-83
2023/05/02 08:42:07;;;;;;;8.65;2.67;;;10.30;99.90;;;;;;4999486;23;20054;-83
2023/05/02 08:44:33;;;;;;;8.98;2.30;;;9.10;99.90;;;;;;4968538;28;20133;-83
2023/05/02 08:46:59;;;;;;;9.32;2.60;;;9.70;99.90;;;;;;4978166;28;20121;-83
2023/05/02 08:49:27;;;;;;;10.52;2.42;;;10.50;99.90;;;;;;4968698;28;20046;-84
2023/05/02 08:52:06;;;;;;;10.30;2.67;;;10.30;99.90;;;;;;4977543;28;20165;-84
2023/05/02 08:54:51;;;;;;;10.35;3.00;;;10.40;99.90;;;;;;4980384;28;20110;-83
2023/05/02 08:57:17;;;;;;;9.63;2.92;;;10.90;99.90;;;;;;4991940;28;20042;-83
2023/05/02 08:59:47;;;;;;;10.05;2.95;;;11.70;99.90;;;;;;4984110;28;20189;-83
2023/05/02 09:03:15;;;;;;;9.60;2.92;;;11.50;99.90;;;;;;4981214;28;20086;-83
2023/05/02 09:05:41;;;;;;;9.35;2.70;;;10.50;99.90;;;;;;4933680;29;20078;-83
2023/05/02 09:08:08;;;;;;;8.20;2.88;;;12.00;99.90;;;;;;4919451;29;20057;-83
2023/05/02 09:10:46;;;;;;;10.55;3.00;;;12.10;99.90;;;;;;4966979;28;20069;-80
2023/05/02 09:13:28;;;;;;;10.88;3.10;;;12.10;99.90;;;;;;4991025;28;20561;-80
2023/05/02 09:16:08;;;;;;;13.80;2.97;;;10.70;99.90;;;;;;4990298;28;20107;-81
2023/05/02 09:18:45;;;;;;;9.32;2.67;;;10.60;99.90;;;;;;4991780;28;20038;-80
2023/05/02 09:21:16;;;;;;;10.90;3.00;;;10.50;99.90;;;;;;4981450;28;20043;-81
2023/05/02 09:23:44;;;;;;;10.20;2.83;;;10.60;99.90;;;;;;4989539;28;20046;-81
2023/05/02 09:26:21;;;;;;;8.43;2.65;;;10.50;99.90;;;;;;4985026;28;20035;-80
2023/05/02 09:28:51;;;;;;;10.52;3.08;;;10.50;99.90;;;;;;4983634;28;20081;-80
2023/05/02 09:31:21;;;;;;;10.57;2.70;;;11.50;99.90;;;;;;4989175;28;20144;-81
2023/05/02 09:33:48;;;;;;;9.63;2.90;;;10.50;99.90;;;;;;4962665;28;20399;-80
2023/05/02 09:36:15;;;;;;;12.93;3.33;;;11.00;99.90;;;;;;4990997;28;20037;-80
2023/05/02 09:38:47;;;;;;;9.50;2.85;;;11.60;99.90;;;;;;4975447;28;20137;-80
2023/05/02 09:41:14;;;;;;;11.50;3.00;;;10.50;99.90;;;;;;4988138;28;20422;-81
2023/05/02 09:43:40;;;;;;;11.02;3.28;;;10.40;99.90;;;;;;4975387;28;20425;-81
2023/05/02 09:46:10;;;;;;;10.25;3.40;;;10.40;99.90;;;;;;4974637;28;20113;-80
2023/05/02 09:48:57;;;;;;;9.70;3.13;;;10.50;99.90;;;;;;4972746;28;20108;-80
2023/05/02 09:51:25;;;;;;;8.27;3.03;;;10.50;99.90;;;;;;4991586;28;20048;-80
2023/05/02 09:53:52;;;;;;;11.77;3.50;;;10.50;99.90;;;;;;4993010;28;20038;-80
2023/05/02 09:56:17;;;;;;;9.50;3.00;;;10.50;99.90;;;;;;4974096;28;20058;-80
2023/05/02 09:58:44;;;;;;;11.55;2.95;;;10.50;99.90;;;;;;4975169;28;20042;-81
2023/05/02 10:01:18;;;;;;;11.00;3.08;;;11.50;99.90;;;;;;4975376;28;20081;-81
2023/05/02 10:03:47;;;;;;;8.55;2.80;;;10.40;99.90;;;;;;4992455;28;20049;-82
2023/05/02 10:06:15;;;;;;;10.18;2.60;;;11.10;99.90;;;;;;4975362;28;20527;-82
2023/05/02 10:08:42;;;;;;;11.35;2.67;;;10.60;99.90;;;;;;4975814;28;20474;-82
2023/05/02 10:11:08;;;;;;;10.00;2.78;;;10.60;99.90;;;;;;4991432;28;20494;-81
2023/05/02 10:13:38;;;;;;;10.32;2.83;;;10.40;99.90;;;;;;4992886;28;20050;-82
2023/05/02 10:16:05;;;;;;;10.05;2.90;;;10.30;99.90;;;;;;4974957;28;20478;-82
2023/05/02 10:19:11;;;;;;;10.73;2.92;;;10.30;99.90;;;;;;4995879;28;20100;-82
2023/05/02 10:21:39;;;;;;;8.98;2.70;;;10.20;99.90;;;;;;4971912;28;20444;-82
2023/05/02 10:24:05;;;;;;;11.27;3.55;;;11.30;99.90;;;;;;4980162;28;20073;-82
2023/05/02 10:26:33;;;;;;;7.93;2.20;;;10.00;99.90;;;;;;4987219;28;20061;-82
2023/05/02 10:29:00;;;;;;;10.00;2.33;;;10.10;99.90;;;;;;4979345;28;20046;-82
2023/05/02 10:31:31;;;;;;;10.30;2.10;;;10.10;99.90;;;;;;4978168;28;20053;-82
2023/05/02 10:33:58;;;;;;;9.18;2.60;;;10.20;99.90;;;;;;4996510;28;20045;-82
2023/05/02 10:36:27;;;;;;;7.57;1.88;;;10.10;99.90;;;;;;5000193;28;20215;-81
2023/05/02 10:38:54;;;;;;;8.52;2.08;;;11.40;99.90;;;;;;4996881;28;20049;-81
2023/05/02 10:41:25;;;;;;;7.32;1.70;;;10.40;99.90;;;;;;4996465;28;20077;-83
2023/05/02 10:43:52;;;;;;;7.70;1.88;;;10.90;99.90;;;;;;4982393;28;20054;-83
2023/05/02 10:46:40;;;;;;;7.82;2.17;;;11.40;99.90;;;;;;4978953;28;20070;-82
2023/05/02 10:49:10;;;;;;;7.38;2.10;;;11.80;99.90;;;;;;4996549;28;20045;-82
2023/05/02 10:51:41;;;;;;;6.93;1.80;;;12.80;99.90;;;;;;4995642;28;20046;-83
2023/05/02 10:54:22;;;;;;;6.47;2.03;;;12.00;99.90;;;;;;4978603;28;20046;-83
2023/05/02 10:57:04;;;;;;;6.55;2.10;;;12.10;99.90;;;;;;4978912;28;20043;-83
2023/05/02 10:59:41;;;;;;;5.28;1.65;;;12.10;98.80;;;;;;4978320;28;20080;-82
2023/05/02 11:02:26;;;;;;;5.95;1.77;;;12.20;99.90;;;;;;4995864;28;20042;-81
2023/05/02 11:05:07;;;;;;;7.97;2.20;;;12.60;99.40;;;;;;4996375;28;20105;-83
2023/05/02 11:07:34;;;;;;;7.05;1.98;;;12.70;99.30;;;;;;4995030;28;20077;-81
2023/05/02 11:10:15;;;;;;;7.88;2.00;;;13.70;99.90;;;;;;4995629;28;20093;-81
2023/05/02 11:12:46;;;;;;;8.23;2.08;;;12.40;98.40;;;;;;4994910;28;20078;-81
2023/05/02 11:15:12;;;;;;;7.60;1.90;;;12.60;99.10;;;;;;4978398;28;20034;-81
2023/05/02 11:18:06;;;;;;;9.68;2.20;;;12.30;99.50;;;;;;4978297;28;20054;-81
2023/05/02 11:20:33;;;;;;;6.45;1.80;;;12.20;99.20;;;;;;4977345;28;20050;-81
2023/05/02 11:23:20;;;;;;;9.60;2.35;;;12.10;99.80;;;;;;4995478;28;20129;-81
2023/05/02 11:25:53;;;;;;;6.53;1.80;;;12.20;99.90;;;;;;4978159;28;20046;-81
2023/05/02 11:28:37;;;;;;;6.95;1.90;;;12.20;99.70;;;;;;4975692;28;20046;-81
2023/05/02 11:31:04;;;;;;;5.68;1.80;;;12.80;98.70;;;;;;4995328;28;20077;-81
2023/05/02 11:33:30;;;;;;;8.02;1.92;;;12.00;99.40;;;;;;4977921;28;20470;-81
2023/05/02 11:35:57;;;;;;;6.00;1.90;;;12.00;99.60;;;;;;4994375;28;20080;-81
2023/05/02 11:38:24;;;;;;;7.80;2.05;;;12.10;99.90;;;;;;4978044;28;20042;-81
2023/05/02 11:40:57;;;;;;;6.00;2.10;;;12.10;99.40;;;;;;4976942;28;20050;-81
2023/05/02 11:43:25;;;;;;;6.55;2.05;;;12.10;99.10;;;;;;5068053;23;20054;-81
2023/05/02 11:45:51;;;;;;;7.90;2.15;;;12.10;99.30;;;;;;4995277;28;20038;-81
2023/05/02 11:48:19;;;;;;;10.00;2.30;;;12.00;99.00;;;;;;4976662;28;20059;-80
2023/05/02 11:50:46;;;;;;;7.75;2.00;;;12.50;99.20;;;;;;4977362;28;20133;-81
2023/05/02 11:53:16;;;;;;;7.68;2.13;;;12.20;99.50;;;;;;4995208;28;20046;-81
2023/05/02 11:55:54;;;;;;;7.57;2.10;;;12.20;99.40;;;;;;4996188;28;20049;-81
2023/05/02 11:58:22;;;;;;;5.35;1.67;;;12.20;98.60;;;;;;4993446;28;20046;-80
2023/05/02 12:00:49;;;;;;;6.88;1.98;;;12.20;98.70;;;;;;4985031;28;20054;-81
2023/05/02 12:03:42;;;;;;;8.90;1.83;;;12.10;98.70;;;;;;4994137;28;20582;-81
2023/05/02 12:06:10;;;;;;;8.25;1.90;;;12.00;97.90;;;;;;4978229;28;20061;-81
2023/05/02 12:08:36;;;;;;;8.27;2.10;;;11.90;99.30;;;;;;4978083;28;20042;-80
2023/05/02 12:11:01;;;;;;;6.40;1.90;;;11.80;99.50;;;;;;4995935;28;20065;-81
2023/05/02 12:13:28;;;;;;;7.78;2.00;;;11.70;99.70;;;;;;4998210;28;20043;-81
2023/05/02 12:15:55;;;;;;;6.75;1.98;;;11.60;99.80;;;;;;4995601;28;20046;-81
2023/05/02 12:18:22;;;;;;;7.93;1.98;;;11.50;99.90;;;;;;4994860;28;20054;-81
2023/05/02 12:20:50;;;;;;;6.30;1.75;;;11.80;99.90;;;;;;4977348;28;20486;-81
2023/05/02 12:23:17;;;;;;;7.03;1.90;;;12.00;99.90;;;;;;4993636;28;20077;-80
2023/05/02 12:25:42;;;;;;;6.55;2.00;;;11.40;99.90;;;;;;4976840;28;20085;-81
2023/05/02 12:28:09;;;;;;;7.80;1.90;;;12.30;99.90;;;;;;4977054;28;20084;-81
2023/05/02 12:30:40;;;;;;;7.97;1.80;;;12.50;99.90;;;;;;4976814;28;20074;-80
2023/05/02 12:33:06;;;;;;;7.97;2.33;;;11.60;99.90;;;;;;4975859;28;20050;-80
2023/05/02 12:35:33;;;;;;;5.30;1.85;;;11.70;99.90;;;;;;4976610;28;20050;-81
2023/05/02 12:38:14;;;;;;;6.63;1.80;;;11.60;99.90;;;;;;4974844;28;20545;-80
2023/05/02 12:40:47;;;;;;;6.97;1.90;;;11.60;99.80;;;;;;5202768;23;20047;-80
2023/05/02 12:43:12;;;;;;;6.82;1.85;;;11.50;99.80;;;;;;5001412;28;20046;-81
2023/05/02 12:45:38;;;;;;;6.75;1.80;;;11.50;99.80;;;;;;4986231;28;20101;-80
2023/05/02 12:48:18;;;;;;;6.80;1.60;;;11.40;99.80;;;;;;5000853;28;20037;-79
2023/05/02 12:50:44;;;;;;;6.18;1.92;;;11.50;99.70;;;;;;4982191;28;20073;-80
2023/05/02 12:53:10;;;;;;;7.00;1.88;;;11.90;99.90;;;;;;4983170;28;20398;-80
2023/05/02 12:55:35;;;;;;;8.52;2.88;;;11.60;99.90;;;;;;5004252;28;20052;-80
2023/05/02 12:58:06;;;;;;;5.35;1.75;;;11.70;99.90;;;;;;5000644;28;20422;-80
2023/05/02 13:00:36;;;;;;;6.82;2.20;;;11.80;99.90;;;;;;5003207;28;20558;-80
2023/05/02 13:03:02;;;;;;;7.30;2.35;;;11.80;99.90;;;;;;5000931;28;20042;-80
2023/05/02 13:05:28;;;;;;;7.25;2.00;;;11.90;99.90;;;;;;4985706;28;20137;-80
2023/05/02 13:07:58;;;;;;;7.93;1.95;;;12.00;99.90;;;;;;5001169;28;20120;-80
2023/05/02 13:10:24;;;;;;;8.10;2.10;;;12.80;99.90;;;;;;4985358;28;20053;-80